sensor_id;sensor_type;location;lat;lon;timestamp;temperature;humidity
13682;DHT22;6913;49.892;7.936;2022-07-25T00:00:39;19.70;99.90
13682;DHT22;6913;49.892;7.936;2022-07-25T00:03:06;19.70;99.90
13682;DHT22;6913;49.892;7.936;2022-07-25T00:05:33;19.60;99.90
13682;DHT22;6913;49.892;7.936;2022-07-25T00:08:02;19.60;99.90
13682;DHT22;6913;49.892;7.936;2022-07-25T00:10:29;19.60;99.90
13682;DHT22;6913;49.892;7.936;2022-07-25T00:12:56;19.50;99.90
13682;DHT22;6913;49.892;7.936;2022-07-25T00:15:22;19.50;99.90
13682;DHT22;6913;49.892;7.936;2022-07-25T00:17:49;19.40;99.90
13682;DHT22;6913;49.892;7.936;2022-07-25T00:20:16;19.40;99.90
13682;DHT22;6913;49.892;7.936;2022-07-25T00:22:43;19.30;99.90
13682;DHT22;6913;49.892;7.936;2022-07-25T00:25:12;19.30;99.90
13682;DHT22;6913;49.892;7.936;2022-07-25T00:27:39;19.30;99.90
13682;DHT22;6913;49.892;7.936;2022-07-25T00:30:07;19.20;99.90
13682;DHT22;6913;49.892;7.936;2022-07-25T00:32:34;19.20;99.90
13682;DHT22;6913;49.892;7.936;2022-07-25T00:35:01;19.10;99.90
13682;DHT22;6913;49.892;7.936;2022-07-25T00:37:28;19.10;99.90
13682;DHT22;6913;49.892;7.936;2022-07-25T00:39:55;19.00;99.90
13682;DHT22;6913;49.892;7.936;2022-07-25T00:42:23;19.00;99.90
13682;DHT22;6913;49.892;7.936;2022-07-25T00:44:50;18.90;99.90
13682;DHT22;6913;49.892;7.936;2022-07-25T00:47:17;18.90;99.90
13682;DHT22;6913;49.892;7.936;2022-07-25T00:49:44;18.90;99.90
13682;DHT22;6913;49.892;7.936;2022-07-25T00:52:11;18.90;99.90
13682;DHT22;6913;49.892;7.936;2022-07-25T00:54:38;18.90;99.90
13682;DHT22;6913;49.892;7.936;2022-07-25T00:57:05;18.80;99.90
13682;DHT22;6913;49.892;7.936;2022-07-25T00:59:33;18.80;99.90
13682;DHT22;6913;49.892;7.936;2022-07-25T01:02:00;18.70;99.90
13682;DHT22;6913;49.892;7.936;2022-07-25T01:04:27;18.70;99.90
13682;DHT22;6913;49.892;7.936;2022-07-25T01:06:54;18.70;99.90
13682;DHT22;6913;49.892;7.936;2022-07-25T01:09:21;18.90;99.90
13682;DHT22;6913;49.892;7.936;2022-07-25T01:11:49;18.60;99.90
13682;DHT22;6913;49.892;7.936;2022-07-25T01:14:15;18.60;99.90
13682;DHT22;6913;49.892;7.936;2022-07-25T01:16:44;18.50;99.90
13682;DHT22;6913;49.892;7.936;2022-07-25T01:19:11;18.50;99.90
13682;DHT22;6913;49.892;7.936;2022-07-25T01:21:40;18.40;99.90
13682;DHT22;6913;49.892;7.936;2022-07-25T01:24:08;18.40;99.90
13682;DHT22;6913;49.892;7.936;2022-07-25T01:26:36;18.30;99.90
13682;DHT22;6913;49.892;7.936;2022-07-25T01:29:03;18.20;99.90
13682;DHT22;6913;49.892;7.936;2022-07-25T01:31:30;18.10;99.90
13682;DHT22;6913;49.892;7.936;2022-07-25T01:33:57;18.10;99.90
13682;DHT22;6913;49.892;7.936;2022-07-25T01:36:24;18.10;99.90
13682;DHT22;6913;49.892;7.936;2022-07-25T01:38:52;18.10;99.90
13682;DHT22;6913;49.892;7.936;2022-07-25T01:41:19;18.00;99.90
13682;DHT22;6913;49.892;7.936;2022-07-25T01:43:46;18.00;99.90
13682;DHT22;6913;49.892;7.936;2022-07-25T01:46:13;18.00;99.90
13682;DHT22;6913;49.892;7.936;2022-07-25T01:48:40;18.00;99.90
13682;DHT22;6913;49.892;7.936;2022-07-25T01:51:07;18.00;99.90
13682;DHT22;6913;49.892;7.936;2022-07-25T01:53:35;18.00;99.90
13682;DHT22;6913;49.892;7.936;2022-07-25T01:56:03;17.90;99.90
13682;DHT22;6913;49.892;7.936;2022-07-25T01:58:30;17.90;99.90
13682;DHT22;6913;49.892;7.936;2022-07-25T02:00:57;17.90;99.90
13682;DHT22;6913;49.892;7.936;2022-07-25T02:03:24;17.80;99.90
13682;DHT22;6913;49.892;7.936;2022-07-25T02:05:57;17.80;99.90
13682;DHT22;6913;49.892;7.936;2022-07-25T02:08:24;17.80;99.90
13682;DHT22;6913;49.892;7.936;2022-07-25T02:10:51;17.80;99.90
13682;DHT22;6913;49.892;7.936;2022-07-25T02:13:19;17.70;99.90
13682;DHT22;6913;49.892;7.936;2022-07-25T02:15:46;17.70;99.90
13682;DHT22;6913;49.892;7.936;2022-07-25T02:18:13;17.70;99.90
13682;DHT22;6913;49.892;7.936;2022-07-25T02:20:40;17.70;99.90
13682;DHT22;6913;49.892;7.936;2022-07-25T02:23:07;17.70;99.90
13682;DHT22;6913;49.892;7.936;2022-07-25T02:25:34;17.70;99.90
13682;DHT22;6913;49.892;7.936;2022-07-25T02:28:01;17.60;99.90
13682;DHT22;6913;49.892;7.936;2022-07-25T02:30:29;17.60;99.90
13682;DHT22;6913;49.892;7.936;2022-07-25T02:32:56;17.50;99.90
13682;DHT22;6913;49.892;7.936;2022-07-25T02:35:23;17.50;99.90
13682;DHT22;6913;49.892;7.936;2022-07-25T02:37:50;17.50;99.90
13682;DHT22;6913;49.892;7.936;2022-07-25T02:40:17;17.50;99.90
13682;DHT22;6913;49.892;7.936;2022-07-25T02:42:43;17.50;99.90
13682;DHT22;6913;49.892;7.936;2022-07-25T02:45:10;17.60;99.90
13682;DHT22;6913;49.892;7.936;2022-07-25T02:47:39;17.50;99.90
13682;DHT22;6913;49.892;7.936;2022-07-25T02:50:07;17.50;99.90
13682;DHT22;6913;49.892;7.936;2022-07-25T02:52:34;17.40;99.90
13682;DHT22;6913;49.892;7.936;2022-07-25T02:55:00;17.40;99.90
13682;DHT22;6913;49.892;7.936;2022-07-25T02:57:27;17.40;99.90
13682;DHT22;6913;49.892;7.936;2022-07-25T02:59:54;17.40;99.90
13682;DHT22;6913;49.892;7.936;2022-07-25T03:02:21;17.40;99.90
13682;DHT22;6913;49.892;7.936;2022-07-25T03:04:49;17.40;99.90
13682;DHT22;6913;49.892;7.936;2022-07-25T03:07:16;17.40;99.90
13682;DHT22;6913;49.892;7.936;2022-07-25T03:09:42;17.30;99.90
13682;DHT22;6913;49.892;7.936;2022-07-25T03:12:09;17.30;99.90
13682;DHT22;6913;49.892;7.936;2022-07-25T03:14:36;17.20;99.90
13682;DHT22;6913;49.892;7.936;2022-07-25T03:17:03;17.10;99.90
13682;DHT22;6913;49.892;7.936;2022-07-25T03:19:30;17.10;99.90
13682;DHT22;6913;49.892;7.936;2022-07-25T03:21:58;17.10;99.90
13682;DHT22;6913;49.892;7.936;2022-07-25T03:24:25;17.20;99.90
13682;DHT22;6913;49.892;7.936;2022-07-25T03:26:51;17.20;99.90
13682;DHT22;6913;49.892;7.936;2022-07-25T03:29:19;17.20;99.90
13682;DHT22;6913;49.892;7.936;2022-07-25T03:31:46;17.20;99.90
13682;DHT22;6913;49.892;7.936;2022-07-25T03:34:13;17.20;99.90
13682;DHT22;6913;49.892;7.936;2022-07-25T03:36:40;17.10;99.90
13682;DHT22;6913;49.892;7.936;2022-07-25T03:39:08;17.10;99.90
13682;DHT22;6913;49.892;7.936;2022-07-25T03:41:35;17.10;99.90
13682;DHT22;6913;49.892;7.936;2022-07-25T03:44:02;17.20;99.90
13682;DHT22;6913;49.892;7.936;2022-07-25T03:46:29;17.00;99.90
13682;DHT22;6913;49.892;7.936;2022-07-25T03:48:55;17.10;99.90
13682;DHT22;6913;49.892;7.936;2022-07-25T03:51:22;17.10;99.90
13682;DHT22;6913;49.892;7.936;2022-07-25T03:53:49;17.00;99.90
13682;DHT22;6913;49.892;7.936;2022-07-25T03:56:29;17.00;99.90
13682;DHT22;6913;49.892;7.936;2022-07-25T03:58:57;17.10;99.90
13682;DHT22;6913;49.892;7.936;2022-07-25T04:01:24;17.00;99.90
13682;DHT22;6913;49.892;7.936;2022-07-25T04:03:51;17.00;99.90
13682;DHT22;6913;49.892;7.936;2022-07-25T04:06:18;17.00;99.90
13682;DHT22;6913;49.892;7.936;2022-07-25T04:08:45;17.00;99.90
13682;DHT22;6913;49.892;7.936;2022-07-25T04:11:12;16.90;99.90
13682;DHT22;6913;49.892;7.936;2022-07-25T04:13:40;16.90;99.90
13682;DHT22;6913;49.892;7.936;2022-07-25T04:16:07;17.00;99.90
13682;DHT22;6913;49.892;7.936;2022-07-25T04:18:34;16.90;99.90
13682;DHT22;6913;49.892;7.936;2022-07-25T04:21:02;17.00;99.90
13682;DHT22;6913;49.892;7.936;2022-07-25T04:23:29;17.10;99.90
13682;DHT22;6913;49.892;7.936;2022-07-25T04:25:56;17.30;99.90
13682;DHT22;6913;49.892;7.936;2022-07-25T04:28:23;17.60;99.90
13682;DHT22;6913;49.892;7.936;2022-07-25T04:30:52;17.90;99.90
13682;DHT22;6913;49.892;7.936;2022-07-25T04:33:19;18.20;99.90
13682;DHT22;6913;49.892;7.936;2022-07-25T04:35:47;18.50;99.90
13682;DHT22;6913;49.892;7.936;2022-07-25T04:38:14;18.90;99.90
13682;DHT22;6913;49.892;7.936;2022-07-25T04:40:41;19.10;99.90
13682;DHT22;6913;49.892;7.936;2022-07-25T04:43:08;19.30;99.90
13682;DHT22;6913;49.892;7.936;2022-07-25T04:45:35;19.50;99.90
13682;DHT22;6913;49.892;7.936;2022-07-25T04:48:04;19.80;99.90
13682;DHT22;6913;49.892;7.936;2022-07-25T04:50:31;20.10;99.90
13682;DHT22;6913;49.892;7.936;2022-07-25T04:52:58;20.40;99.90
13682;DHT22;6913;49.892;7.936;2022-07-25T04:55:24;20.60;99.90
13682;DHT22;6913;49.892;7.936;2022-07-25T04:57:51;21.10;99.90
13682;DHT22;6913;49.892;7.936;2022-07-25T05:00:18;21.50;99.90
13682;DHT22;6913;49.892;7.936;2022-07-25T05:02:45;21.50;99.90
13682;DHT22;6913;49.892;7.936;2022-07-25T05:05:13;21.30;99.90
13682;DHT22;6913;49.892;7.936;2022-07-25T05:07:40;21.70;99.90
13682;DHT22;6913;49.892;7.936;2022-07-25T05:10:08;21.90;99.90
13682;DHT22;6913;49.892;7.936;2022-07-25T05:12:35;21.70;99.90
13682;DHT22;6913;49.892;7.936;2022-07-25T05:15:02;22.30;99.90
13682;DHT22;6913;49.892;7.936;2022-07-25T05:17:29;22.00;99.90
13682;DHT22;6913;49.892;7.936;2022-07-25T05:19:56;22.50;99.90
13682;DHT22;6913;49.892;7.936;2022-07-25T05:22:24;22.00;99.90
13682;DHT22;6913;49.892;7.936;2022-07-25T05:24:51;22.20;99.90
13682;DHT22;6913;49.892;7.936;2022-07-25T05:27:18;21.90;99.90
13682;DHT22;6913;49.892;7.936;2022-07-25T05:29:45;22.20;99.90
13682;DHT22;6913;49.892;7.936;2022-07-25T05:32:12;21.90;99.90
13682;DHT22;6913;49.892;7.936;2022-07-25T05:34:39;22.10;99.90
13682;DHT22;6913;49.892;7.936;2022-07-25T05:37:05;22.20;99.90
13682;DHT22;6913;49.892;7.936;2022-07-25T05:39:34;22.20;99.90
13682;DHT22;6913;49.892;7.936;2022-07-25T05:42:02;22.30;99.90
13682;DHT22;6913;49.892;7.936;2022-07-25T05:44:28;23.30;99.90
13682;DHT22;6913;49.892;7.936;2022-07-25T05:46:55;24.00;99.90
13682;DHT22;6913;49.892;7.936;2022-07-25T05:49:22;24.60;99.90
13682;DHT22;6913;49.892;7.936;2022-07-25T05:51:49;25.10;99.90
13682;DHT22;6913;49.892;7.936;2022-07-25T05:54:16;25.50;99.90
13682;DHT22;6913;49.892;7.936;2022-07-25T05:56:44;25.70;99.90
13682;DHT22;6913;49.892;7.936;2022-07-25T05:59:12;26.00;99.90
13682;DHT22;6913;49.892;7.936;2022-07-25T06:01:38;26.40;99.90
13682;DHT22;6913;49.892;7.936;2022-07-25T06:04:05;27.10;99.90
13682;DHT22;6913;49.892;7.936;2022-07-25T06:06:32;27.60;99.90
13682;DHT22;6913;49.892;7.936;2022-07-25T06:08:59;27.60;99.90
13682;DHT22;6913;49.892;7.936;2022-07-25T06:11:26;28.00;99.90
13682;DHT22;6913;49.892;7.936;2022-07-25T06:13:56;28.10;99.90
13682;DHT22;6913;49.892;7.936;2022-07-25T06:16:23;28.40;99.90
13682;DHT22;6913;49.892;7.936;2022-07-25T06:18:50;28.40;99.90
13682;DHT22;6913;49.892;7.936;2022-07-25T06:21:17;28.10;99.90
13682;DHT22;6913;49.892;7.936;2022-07-25T06:23:43;28.50;99.90
13682;DHT22;6913;49.892;7.936;2022-07-25T06:26:10;29.00;99.90
13682;DHT22;6913;49.892;7.936;2022-07-25T06:28:37;29.50;99.90
13682;DHT22;6913;49.892;7.936;2022-07-25T06:31:06;28.30;99.90
13682;DHT22;6913;49.892;7.936;2022-07-25T06:33:33;29.10;99.90
13682;DHT22;6913;49.892;7.936;2022-07-25T06:35:59;27.40;99.90
13682;DHT22;6913;49.892;7.936;2022-07-25T06:38:26;27.40;99.90
13682;DHT22;6913;49.892;7.936;2022-07-25T06:40:53;27.90;99.90
13682;DHT22;6913;49.892;7.936;2022-07-25T06:43:20;28.60;99.90
13682;DHT22;6913;49.892;7.936;2022-07-25T06:45:47;29.10;99.90
13682;DHT22;6913;49.892;7.936;2022-07-25T06:48:16;30.00;99.90
13682;DHT22;6913;49.892;7.936;2022-07-25T06:50:43;30.80;99.90
13682;DHT22;6913;49.892;7.936;2022-07-25T06:53:10;30.40;99.90
13682;DHT22;6913;49.892;7.936;2022-07-25T06:55:37;30.90;99.40
13682;DHT22;6913;49.892;7.936;2022-07-25T06:58:04;30.20;99.20
13682;DHT22;6913;49.892;7.936;2022-07-25T07:00:30;30.00;99.10
13682;DHT22;6913;49.892;7.936;2022-07-25T07:02:59;29.80;99.90
13682;DHT22;6913;49.892;7.936;2022-07-25T07:05:30;30.00;99.30
13682;DHT22;6913;49.892;7.936;2022-07-25T07:07:57;30.10;98.20
13682;DHT22;6913;49.892;7.936;2022-07-25T07:10:24;30.10;98.80
13682;DHT22;6913;49.892;7.936;2022-07-25T07:13:02;29.90;99.50
13682;DHT22;6913;49.892;7.936;2022-07-25T07:15:29;31.10;97.60
13682;DHT22;6913;49.892;7.936;2022-07-25T07:17:56;31.90;95.40
13682;DHT22;6913;49.892;7.936;2022-07-25T07:20:23;31.30;97.50
13682;DHT22;6913;49.892;7.936;2022-07-25T07:22:51;31.80;95.40
13682;DHT22;6913;49.892;7.936;2022-07-25T07:25:19;30.30;95.60
13682;DHT22;6913;49.892;7.936;2022-07-25T07:27:49;30.60;95.90
13682;DHT22;6913;49.892;7.936;2022-07-25T07:30:16;30.30;95.70
13682;DHT22;6913;49.892;7.936;2022-07-25T07:32:43;30.40;97.20
13682;DHT22;6913;49.892;7.936;2022-07-25T07:35:11;31.70;95.80
13682;DHT22;6913;49.892;7.936;2022-07-25T07:37:41;32.30;94.60
13682;DHT22;6913;49.892;7.936;2022-07-25T07:40:10;32.80;93.60
13682;DHT22;6913;49.892;7.936;2022-07-25T07:42:39;33.40;92.30
13682;DHT22;6913;49.892;7.936;2022-07-25T07:45:10;33.00;92.40
13682;DHT22;6913;49.892;7.936;2022-07-25T07:47:37;32.20;92.70
13682;DHT22;6913;49.892;7.936;2022-07-25T07:50:05;32.50;92.40
13682;DHT22;6913;49.892;7.936;2022-07-25T07:52:32;31.40;93.60
13682;DHT22;6913;49.892;7.936;2022-07-25T07:54:59;30.90;93.90
13682;DHT22;6913;49.892;7.936;2022-07-25T07:57:45;31.20;94.00
13682;DHT22;6913;49.892;7.936;2022-07-25T08:00:13;32.30;93.60
13682;DHT22;6913;49.892;7.936;2022-07-25T08:02:44;33.40;91.90
13682;DHT22;6913;49.892;7.936;2022-07-25T08:05:12;34.10;90.60
13682;DHT22;6913;49.892;7.936;2022-07-25T08:07:39;34.40;89.70
13682;DHT22;6913;49.892;7.936;2022-07-25T08:10:06;35.10;87.70
13682;DHT22;6913;49.892;7.936;2022-07-25T08:12:39;35.30;86.30
13682;DHT22;6913;49.892;7.936;2022-07-25T08:15:09;33.80;85.00
13682;DHT22;6913;49.892;7.936;2022-07-25T08:17:35;33.40;87.30
13682;DHT22;6913;49.892;7.936;2022-07-25T08:20:03;31.90;89.80
13682;DHT22;6913;49.892;7.936;2022-07-25T08:22:37;32.20;90.90
13682;DHT22;6913;49.892;7.936;2022-07-25T08:25:05;33.10;89.50
13682;DHT22;6913;49.892;7.936;2022-07-25T08:27:32;34.00;88.00
13682;DHT22;6913;49.892;7.936;2022-07-25T08:29:59;34.40;87.70
13682;DHT22;6913;49.892;7.936;2022-07-25T08:32:27;34.60;83.80
13682;DHT22;6913;49.892;7.936;2022-07-25T08:34:54;33.40;86.40
13682;DHT22;6913;49.892;7.936;2022-07-25T08:37:22;33.80;86.70
13682;DHT22;6913;49.892;7.936;2022-07-25T08:39:49;34.00;87.20
13682;DHT22;6913;49.892;7.936;2022-07-25T08:42:17;34.60;83.50
13682;DHT22;6913;49.892;7.936;2022-07-25T08:44:49;33.90;85.70
13682;DHT22;6913;49.892;7.936;2022-07-25T08:47:18;34.20;85.70
13682;DHT22;6913;49.892;7.936;2022-07-25T08:49:47;34.40;88.40
13682;DHT22;6913;49.892;7.936;2022-07-25T08:52:14;34.60;86.40
13682;DHT22;6913;49.892;7.936;2022-07-25T08:54:42;35.30;82.80
13682;DHT22;6913;49.892;7.936;2022-07-25T08:57:10;35.80;84.60
13682;DHT22;6913;49.892;7.936;2022-07-25T08:59:37;36.50;79.60
13682;DHT22;6913;49.892;7.936;2022-07-25T09:02:04;34.40;83.70
13682;DHT22;6913;49.892;7.936;2022-07-25T09:04:33;34.90;82.60
13682;DHT22;6913;49.892;7.936;2022-07-25T09:07:02;34.40;81.40
13682;DHT22;6913;49.892;7.936;2022-07-25T09:09:31;34.30;83.70
13682;DHT22;6913;49.892;7.936;2022-07-25T09:11:58;34.20;83.80
13682;DHT22;6913;49.892;7.936;2022-07-25T09:14:25;32.70;86.20
13682;DHT22;6913;49.892;7.936;2022-07-25T09:16:54;33.20;86.70
13682;DHT22;6913;49.892;7.936;2022-07-25T09:19:23;33.10;86.10
13682;DHT22;6913;49.892;7.936;2022-07-25T09:22:00;33.60;87.00
13682;DHT22;6913;49.892;7.936;2022-07-25T09:24:29;33.40;85.80
13682;DHT22;6913;49.892;7.936;2022-07-25T09:26:58;33.90;87.00
13682;DHT22;6913;49.892;7.936;2022-07-25T09:29:27;34.30;85.10
13682;DHT22;6913;49.892;7.936;2022-07-25T09:31:55;35.40;83.20
13682;DHT22;6913;49.892;7.936;2022-07-25T09:34:30;35.60;83.40
13682;DHT22;6913;49.892;7.936;2022-07-25T09:36:59;36.30;80.40
13682;DHT22;6913;49.892;7.936;2022-07-25T09:39:39;36.30;82.10
13682;DHT22;6913;49.892;7.936;2022-07-25T09:42:18;37.30;78.40
13682;DHT22;6913;49.892;7.936;2022-07-25T09:44:59;38.40;77.30
13682;DHT22;6913;49.892;7.936;2022-07-25T09:47:27;37.30;76.70
13682;DHT22;6913;49.892;7.936;2022-07-25T09:49:55;38.10;74.00
13682;DHT22;6913;49.892;7.936;2022-07-25T09:52:23;38.60;72.10
13682;DHT22;6913;49.892;7.936;2022-07-25T09:54:51;38.40;70.00
13682;DHT22;6913;49.892;7.936;2022-07-25T09:57:19;38.70;69.20
13682;DHT22;6913;49.892;7.936;2022-07-25T09:59:46;39.40;69.20
13682;DHT22;6913;49.892;7.936;2022-07-25T10:02:20;39.80;66.70
13682;DHT22;6913;49.892;7.936;2022-07-25T10:04:55;39.30;65.70
13682;DHT22;6913;49.892;7.936;2022-07-25T10:07:25;38.20;64.70
13682;DHT22;6913;49.892;7.936;2022-07-25T10:09:54;37.80;66.90
13682;DHT22;6913;49.892;7.936;2022-07-25T10:12:22;37.90;66.40
13682;DHT22;6913;49.892;7.936;2022-07-25T10:15:06;38.00;65.40
13682;DHT22;6913;49.892;7.936;2022-07-25T10:17:34;37.60;65.20
13682;DHT22;6913;49.892;7.936;2022-07-25T10:20:02;37.20;65.60
13682;DHT22;6913;49.892;7.936;2022-07-25T10:22:42;36.20;67.10
13682;DHT22;6913;49.892;7.936;2022-07-25T10:25:13;36.40;66.50
13682;DHT22;6913;49.892;7.936;2022-07-25T10:27:42;36.20;66.40
13682;DHT22;6913;49.892;7.936;2022-07-25T10:30:19;36.40;67.00
13682;DHT22;6913;49.892;7.936;2022-07-25T10:32:55;36.60;68.30
13682;DHT22;6913;49.892;7.936;2022-07-25T10:35:22;37.10;68.00
13682;DHT22;6913;49.892;7.936;2022-07-25T10:37:50;37.20;64.90
13682;DHT22;6913;49.892;7.936;2022-07-25T10:40:26;36.80;64.90
13682;DHT22;6913;49.892;7.936;2022-07-25T10:43:01;36.80;64.30
13682;DHT22;6913;49.892;7.936;2022-07-25T10:45:43;37.20;62.30
13682;DHT22;6913;49.892;7.936;2022-07-25T10:48:20;36.60;62.30
13682;DHT22;6913;49.892;7.936;2022-07-25T10:50:49;36.80;63.70
13682;DHT22;6913;49.892;7.936;2022-07-25T10:53:32;36.50;63.10
13682;DHT22;6913;49.892;7.936;2022-07-25T10:56:06;36.40;63.20
13682;DHT22;6913;49.892;7.936;2022-07-25T10:58:44;36.80;63.40
13682;DHT22;6913;49.892;7.936;2022-07-25T11:01:12;37.20;62.70
13682;DHT22;6913;49.892;7.936;2022-07-25T11:03:40;37.00;61.80
13682;DHT22;6913;49.892;7.936;2022-07-25T11:06:10;36.90;62.20
13682;DHT22;6913;49.892;7.936;2022-07-25T11:08:37;37.10;62.10
13682;DHT22;6913;49.892;7.936;2022-07-25T11:11:05;37.20;61.60
13682;DHT22;6913;49.892;7.936;2022-07-25T11:13:36;36.90;60.80
13682;DHT22;6913;49.892;7.936;2022-07-25T11:16:04;37.00;60.80
13682;DHT22;6913;49.892;7.936;2022-07-25T11:18:36;37.60;61.00
13682;DHT22;6913;49.892;7.936;2022-07-25T11:21:04;38.00;59.70
13682;DHT22;6913;49.892;7.936;2022-07-25T11:23:32;37.80;59.50
13682;DHT22;6913;49.892;7.936;2022-07-25T11:26:10;37.30;59.30
13682;DHT22;6913;49.892;7.936;2022-07-25T11:28:43;37.10;60.00
13682;DHT22;6913;49.892;7.936;2022-07-25T11:31:10;37.50;58.70
13682;DHT22;6913;49.892;7.936;2022-07-25T11:33:38;38.00;59.50
13682;DHT22;6913;49.892;7.936;2022-07-25T11:36:06;38.10;60.10
13682;DHT22;6913;49.892;7.936;2022-07-25T11:38:34;38.70;58.90
13682;DHT22;6913;49.892;7.936;2022-07-25T11:41:02;38.40;59.20
13682;DHT22;6913;49.892;7.936;2022-07-25T11:43:30;38.40;57.90
13682;DHT22;6913;49.892;7.936;2022-07-25T11:45:59;38.50;57.10
13682;DHT22;6913;49.892;7.936;2022-07-25T11:48:31;38.00;57.40
13682;DHT22;6913;49.892;7.936;2022-07-25T11:51:08;37.50;57.20
13682;DHT22;6913;49.892;7.936;2022-07-25T11:53:38;37.30;58.50
13682;DHT22;6913;49.892;7.936;2022-07-25T11:56:11;37.90;58.20
13682;DHT22;6913;49.892;7.936;2022-07-25T11:58:39;38.10;56.90
13682;DHT22;6913;49.892;7.936;2022-07-25T12:01:11;37.50;57.60
13682;DHT22;6913;49.892;7.936;2022-07-25T12:03:38;37.10;58.60
13682;DHT22;6913;49.892;7.936;2022-07-25T12:06:09;37.00;58.40
13682;DHT22;6913;49.892;7.936;2022-07-25T12:08:38;36.80;58.70
13682;DHT22;6913;49.892;7.936;2022-07-25T12:11:16;36.70;58.70
13682;DHT22;6913;49.892;7.936;2022-07-25T12:13:44;36.40;58.90
13682;DHT22;6913;49.892;7.936;2022-07-25T12:16:11;36.20;59.90
13682;DHT22;6913;49.892;7.936;2022-07-25T12:18:38;36.10;59.50
13682;DHT22;6913;49.892;7.936;2022-07-25T12:21:05;36.00;61.10
13682;DHT22;6913;49.892;7.936;2022-07-25T12:23:32;35.40;61.50
13682;DHT22;6913;49.892;7.936;2022-07-25T12:25:59;35.50;62.10
13682;DHT22;6913;49.892;7.936;2022-07-25T12:28:26;35.50;62.30
13682;DHT22;6913;49.892;7.936;2022-07-25T12:30:55;35.30;62.70
13682;DHT22;6913;49.892;7.936;2022-07-25T12:33:21;35.00;64.10
13682;DHT22;6913;49.892;7.936;2022-07-25T12:35:48;35.00;64.90
13682;DHT22;6913;49.892;7.936;2022-07-25T12:38:15;35.10;66.10
13682;DHT22;6913;49.892;7.936;2022-07-25T12:40:42;35.40;66.10
13682;DHT22;6913;49.892;7.936;2022-07-25T12:43:09;35.90;67.00
13682;DHT22;6913;49.892;7.936;2022-07-25T12:45:36;35.90;64.50
13682;DHT22;6913;49.892;7.936;2022-07-25T12:48:04;35.60;65.00
13682;DHT22;6913;49.892;7.936;2022-07-25T12:50:31;35.20;64.50
13682;DHT22;6913;49.892;7.936;2022-07-25T12:52:58;34.80;65.90
13682;DHT22;6913;49.892;7.936;2022-07-25T12:55:25;34.70;68.00
13682;DHT22;6913;49.892;7.936;2022-07-25T12:57:52;35.00;69.50
13682;DHT22;6913;49.892;7.936;2022-07-25T13:00:20;35.40;67.10
13682;DHT22;6913;49.892;7.936;2022-07-25T13:02:48;36.00;66.30
13682;DHT22;6913;49.892;7.936;2022-07-25T13:05:17;36.40;65.00
13682;DHT22;6913;49.892;7.936;2022-07-25T13:07:43;36.50;64.00
13682;DHT22;6913;49.892;7.936;2022-07-25T13:10:10;36.40;64.80
13682;DHT22;6913;49.892;7.936;2022-07-25T13:12:37;36.70;64.10
13682;DHT22;6913;49.892;7.936;2022-07-25T13:15:05;36.80;63.40
13682;DHT22;6913;49.892;7.936;2022-07-25T13:17:32;36.60;63.70
13682;DHT22;6913;49.892;7.936;2022-07-25T13:19:59;36.50;63.60
13682;DHT22;6913;49.892;7.936;2022-07-25T13:22:27;36.50;63.30
13682;DHT22;6913;49.892;7.936;2022-07-25T13:24:54;36.70;64.30
13682;DHT22;6913;49.892;7.936;2022-07-25T13:27:21;37.20;63.30
13682;DHT22;6913;49.892;7.936;2022-07-25T13:29:49;37.20;62.80
13682;DHT22;6913;49.892;7.936;2022-07-25T13:32:18;37.00;62.40
13682;DHT22;6913;49.892;7.936;2022-07-25T13:34:45;36.90;61.40
13682;DHT22;6913;49.892;7.936;2022-07-25T13:37:12;36.70;61.00
13682;DHT22;6913;49.892;7.936;2022-07-25T13:39:40;36.50;59.80
13682;DHT22;6913;49.892;7.936;2022-07-25T13:42:07;35.90;61.70
13682;DHT22;6913;49.892;7.936;2022-07-25T13:44:34;36.20;60.50
13682;DHT22;6913;49.892;7.936;2022-07-25T13:47:01;36.30;60.30
13682;DHT22;6913;49.892;7.936;2022-07-25T13:49:29;36.30;59.70
13682;DHT22;6913;49.892;7.936;2022-07-25T13:51:56;36.40;59.70
13682;DHT22;6913;49.892;7.936;2022-07-25T13:54:23;36.10;59.40
13682;DHT22;6913;49.892;7.936;2022-07-25T13:56:51;36.20;59.80
13682;DHT22;6913;49.892;7.936;2022-07-25T13:59:18;36.60;59.30
13682;DHT22;6913;49.892;7.936;2022-07-25T14:01:45;37.10;58.50
13682;DHT22;6913;49.892;7.936;2022-07-25T14:04:11;37.40;58.50
13682;DHT22;6913;49.892;7.936;2022-07-25T14:06:38;36.90;58.00
13682;DHT22;6913;49.892;7.936;2022-07-25T14:09:05;36.20;58.80
13682;DHT22;6913;49.892;7.936;2022-07-25T14:11:32;35.90;59.80
13682;DHT22;6913;49.892;7.936;2022-07-25T14:14:00;35.90;59.90
13682;DHT22;6913;49.892;7.936;2022-07-25T14:16:27;35.70;60.80
13682;DHT22;6913;49.892;7.936;2022-07-25T14:18:54;35.40;61.90
13682;DHT22;6913;49.892;7.936;2022-07-25T14:21:20;35.70;63.00
13682;DHT22;6913;49.892;7.936;2022-07-25T14:23:47;36.40;62.00
13682;DHT22;6913;49.892;7.936;2022-07-25T14:26:14;36.80;61.00
13682;DHT22;6913;49.892;7.936;2022-07-25T14:28:41;37.10;60.50
13682;DHT22;6913;49.892;7.936;2022-07-25T14:31:09;37.20;60.30
13682;DHT22;6913;49.892;7.936;2022-07-25T14:33:36;37.20;59.90
13682;DHT22;6913;49.892;7.936;2022-07-25T14:36:05;37.20;59.40
13682;DHT22;6913;49.892;7.936;2022-07-25T14:38:32;36.50;59.50
13682;DHT22;6913;49.892;7.936;2022-07-25T14:40:59;36.30;59.00
13682;DHT22;6913;49.892;7.936;2022-07-25T14:43:25;36.50;58.90
13682;DHT22;6913;49.892;7.936;2022-07-25T14:45:52;36.40;58.70
13682;DHT22;6913;49.892;7.936;2022-07-25T14:48:21;36.40;58.70
13682;DHT22;6913;49.892;7.936;2022-07-25T14:50:47;36.30;58.50
13682;DHT22;6913;49.892;7.936;2022-07-25T14:53:14;36.30;58.80
13682;DHT22;6913;49.892;7.936;2022-07-25T14:55:41;36.30;58.50
13682;DHT22;6913;49.892;7.936;2022-07-25T14:58:08;36.20;58.80
13682;DHT22;6913;49.892;7.936;2022-07-25T15:00:36;36.10;59.00
13682;DHT22;6913;49.892;7.936;2022-07-25T15:03:07;36.10;59.40
13682;DHT22;6913;49.892;7.936;2022-07-25T15:05:35;35.70;59.10
13682;DHT22;6913;49.892;7.936;2022-07-25T15:08:03;35.20;59.80
13682;DHT22;6913;49.892;7.936;2022-07-25T15:10:30;34.90;60.90
13682;DHT22;6913;49.892;7.936;2022-07-25T15:12:57;35.30;59.60
13682;DHT22;6913;49.892;7.936;2022-07-25T15:15:23;35.20;59.20
13682;DHT22;6913;49.892;7.936;2022-07-25T15:17:50;34.80;60.00
13682;DHT22;6913;49.892;7.936;2022-07-25T15:20:18;34.70;60.30
13682;DHT22;6913;49.892;7.936;2022-07-25T15:22:46;34.40;60.70
13682;DHT22;6913;49.892;7.936;2022-07-25T15:25:13;33.90;61.20
13682;DHT22;6913;49.892;7.936;2022-07-25T15:27:40;33.80;61.20
13682;DHT22;6913;49.892;7.936;2022-07-25T15:30:07;33.90;62.20
13682;DHT22;6913;49.892;7.936;2022-07-25T15:32:34;33.90;62.60
13682;DHT22;6913;49.892;7.936;2022-07-25T15:35:02;33.80;63.40
13682;DHT22;6913;49.892;7.936;2022-07-25T15:37:29;33.70;63.40
13682;DHT22;6913;49.892;7.936;2022-07-25T15:39:57;33.60;63.80
13682;DHT22;6913;49.892;7.936;2022-07-25T15:42:24;33.60;61.70
13682;DHT22;6913;49.892;7.936;2022-07-25T15:44:51;33.60;61.40
13682;DHT22;6913;49.892;7.936;2022-07-25T15:47:18;33.60;60.90
13682;DHT22;6913;49.892;7.936;2022-07-25T15:49:45;33.70;62.30